Time;durP1;ratioP1;P1;durP2;ratioP2;P2;SDS_P1;SDS_P2;PMS_P1;PMS_P2;Temp;Humidity;BMP_temperature;BMP_pressure;BME280_temperature;BME280_humidity;BME280_pressure;Samples;Min_cycle;Max_cycle;Signal;HPM_P1;HPM_P2
2023/12/16 00:00:27;;;;;;;61.70;19.13;;;5.20;99.90;;;;;;4205822;28;20228;-78
2023/12/16 00:02:28;;;;;;;57.23;18.07;;;5.10;99.90;;;;;;4211277;28;20445;-79
2023/12/16 00:04:30;;;;;;;63.90;18.57;;;5.10;99.90;;;;;;4214889;28;20468;-78
2023/12/16 00:06:31;;;;;;;53.67;17.77;;;5.10;99.90;;;;;;4204173;28;20224;-78
2023/12/16 00:08:33;;;;;;;50.20;18.67;;;5.10;99.90;;;;;;4217409;28;20445;-78
2023/12/16 00:10:36;;;;;;;56.00;18.30;;;5.10;99.90;;;;;;4207051;28;20236;-78
2023/12/16 00:12:38;;;;;;;58.40;18.17;;;5.00;99.90;;;;;;4211063;28;20511;-78
2023/12/16 00:14:39;;;;;;;50.50;16.17;;;5.00;99.90;;;;;;4212730;28;20447;-78
2023/12/16 00:16:45;;;;;;;47.97;17.47;;;5.10;99.90;;;;;;4215481;28;20874;-79
2023/12/16 00:18:47;;;;;;;61.00;18.23;;;5.00;99.90;;;;;;4212622;28;20890;-77
2023/12/16 00:20:48;;;;;;;45.37;16.03;;;5.00;99.90;;;;;;4214674;28;20848;-78
2023/12/16 00:22:50;;;;;;;51.57;16.87;;;5.00;99.90;;;;;;4217062;28;20450;-79
2023/12/16 00:24:51;;;;;;;53.23;17.47;;;5.20;99.90;;;;;;4218767;28;20472;-80
2023/12/16 00:26:54;;;;;;;48.53;16.97;;;5.00;99.90;;;;;;4211985;28;20584;-79
2023/12/16 00:28:56;;;;;;;47.03;17.20;;;5.00;99.90;;;;;;4211424;28;20461;-79
2023/12/16 00:30:57;;;;;;;58.80;17.63;;;5.00;99.90;;;;;;4195810;28;20534;-79
2023/12/16 00:33:02;;;;;;;47.63;16.47;;;5.10;99.90;;;;;;4214663;28;20832;-79
2023/12/16 00:35:03;;;;;;;54.47;18.03;;;5.00;99.90;;;;;;4215854;28;20200;-79
2023/12/16 00:37:06;;;;;;;52.77;17.60;;;5.00;99.90;;;;;;4214580;28;20485;-79
2023/12/16 00:39:07;;;;;;;60.53;16.70;;;5.00;99.90;;;;;;4212896;28;20490;-79
2023/12/16 00:41:09;;;;;;;45.10;14.73;;;5.00;99.90;;;;;;4210851;28;20503;-79
2023/12/16 00:43:13;;;;;;;52.23;16.30;;;5.00;99.90;;;;;;4208988;28;20448;-79
2023/12/16 00:45:15;;;;;;;49.50;15.67;;;5.10;99.90;;;;;;4199203;28;20450;-79
2023/12/16 00:47:17;;;;;;;44.33;15.63;;;4.90;99.90;;;;;;4216216;28;20514;-79
2023/12/16 00:49:19;;;;;;;58.33;17.00;;;5.00;99.90;;;;;;4215832;28;20464;-79
2023/12/16 00:51:21;;;;;;;59.60;16.47;;;4.90;99.90;;;;;;4214651;28;20512;-79
2023/12/16 00:53:23;;;;;;;53.40;16.80;;;4.90;99.90;;;;;;4214382;28;20529;-79
2023/12/16 00:55:25;;;;;;;43.00;15.10;;;4.90;99.90;;;;;;4215143;28;20470;-79
2023/12/16 00:57:27;;;;;;;44.17;15.80;;;4.90;99.90;;;;;;4215358;28;20442;-79
2023/12/16 00:59:31;;;;;;;61.10;16.80;;;4.90;99.90;;;;;;4215140;28;20504;-79
2023/12/16 01:01:32;;;;;;;40.77;14.23;;;4.90;99.90;;;;;;4211773;28;20516;-79
2023/12/16 01:03:37;;;;;;;41.80;14.83;;;4.90;99.90;;;;;;4215060;28;20438;-79
2023/12/16 01:05:39;;;;;;;40.77;14.83;;;4.90;99.90;;;;;;4216204;28;20447;-79
2023/12/16 01:07:41;;;;;;;47.77;15.73;;;4.90;99.90;;;;;;4213164;28;20457;-79
2023/12/16 01:09:42;;;;;;;53.40;17.13;;;4.90;99.90;;;;;;4215608;28;20504;-79
2023/12/16 01:11:44;;;;;;;53.70;17.03;;;4.90;99.90;;;;;;4213964;28;21059;-79
2023/12/16 01:13:46;;;;;;;51.27;16.43;;;4.90;99.90;;;;;;4214239;28;20229;-79
2023/12/16 01:15:49;;;;;;;47.20;16.00;;;4.90;99.90;;;;;;4214505;28;20449;-79
2023/12/16 01:17:51;;;;;;;53.73;16.77;;;4.80;99.90;;;;;;4211643;28;20561;-79
2023/12/16 01:19:53;;;;;;;53.20;16.70;;;4.90;99.90;;;;;;4211272;28;20541;-79
2023/12/16 01:21:55;;;;;;;61.77;16.50;;;4.80;99.90;;;;;;4210669;28;20488;-79
2023/12/16 01:23:57;;;;;;;43.60;14.30;;;4.90;99.90;;;;;;4212540;28;20936;-79
2023/12/16 01:25:58;;;;;;;52.60;15.87;;;4.80;99.90;;;;;;4213796;28;20463;-79
2023/12/16 01:28:00;;;;;;;39.63;14.80;;;4.90;99.90;;;;;;4211806;28;20539;-79
2023/12/16 01:30:03;;;;;;;45.10;15.13;;;4.90;99.90;;;;;;4213193;28;20464;-79
2023/12/16 01:32:08;;;;;;;40.33;15.23;;;4.90;99.90;;;;;;4209679;28;21100;-79
2023/12/16 01:34:10;;;;;;;45.27;14.37;;;4.80;99.90;;;;;;4211381;28;20466;-79
2023/12/16 01:36:12;;;;;;;41.77;14.17;;;4.80;99.90;;;;;;4213610;28;20460;-79
2023/12/16 01:38:14;;;;;;;46.10;14.63;;;4.90;99.90;;;;;;4209124;28;20475;-79
2023/12/16 01:40:16;;;;;;;43.70;13.80;;;5.00;99.90;;;;;;4210622;28;20508;-79
2023/12/16 01:42:17;;;;;;;44.27;14.20;;;4.80;99.90;;;;;;4216029;28;20447;-79
2023/12/16 01:44:19;;;;;;;43.73;14.03;;;4.80;99.90;;;;;;4214341;28;20473;-78
2023/12/16 01:46:22;;;;;;;45.00;14.90;;;5.10;99.90;;;;;;4215290;28;20442;-79
2023/12/16 01:48:25;;;;;;;38.93;13.07;;;4.80;99.90;;;;;;4215847;28;20500;-79
2023/12/16 01:50:27;;;;;;;55.33;14.30;;;4.80;99.90;;;;;;4203154;28;20906;-79
2023/12/16 01:52:29;;;;;;;41.47;13.40;;;4.80;99.90;;;;;;4217944;28;20507;-79
2023/12/16 01:54:32;;;;;;;48.70;13.47;;;4.80;99.90;;;;;;4212418;28;20466;-79
2023/12/16 01:56:38;;;;;;;48.60;13.37;;;4.90;99.90;;;;;;4215219;28;20506;-79
2023/12/16 01:58:43;;;;;;;41.10;12.97;;;4.80;99.90;;;;;;4214989;28;20470;-79
2023/12/16 02:00:46;;;;;;;49.20;12.47;;;4.80;99.90;;;;;;4207362;28;20469;-79
2023/12/16 02:02:48;;;;;;;28.23;11.20;;;4.80;99.90;;;;;;4224460;28;20509;-79
2023/12/16 02:04:52;;;;;;;37.03;11.80;;;4.80;99.90;;;;;;4225022;28;20984;-79
2023/12/16 02:06:55;;;;;;;40.63;12.43;;;4.90;99.90;;;;;;4221272;28;20529;-79
2023/12/16 02:08:57;;;;;;;38.97;11.73;;;4.90;99.90;;;;;;4221673;28;20521;-79
2023/12/16 02:10:59;;;;;;;37.67;11.60;;;4.80;99.90;;;;;;4225621;28;20554;-79
2023/12/16 02:13:03;;;;;;;32.27;10.70;;;4.80;99.90;;;;;;4226558;28;20430;-79
2023/12/16 02:15:06;;;;;;;32.27;11.63;;;4.80;99.90;;;;;;4221540;28;20523;-78
2023/12/16 02:17:07;;;;;;;41.73;11.73;;;4.80;99.90;;;;;;4218492;28;20433;-78
2023/12/16 02:19:13;;;;;;;28.40;10.83;;;4.90;99.90;;;;;;4218129;28;20989;-78
2023/12/16 02:21:16;;;;;;;29.10;9.50;;;4.90;99.90;;;;;;4219661;28;20262;-78
2023/12/16 02:23:19;;;;;;;32.00;10.30;;;4.90;99.90;;;;;;4216995;28;20445;-78
2023/12/16 02:25:21;;;;;;;34.33;10.83;;;4.90;99.90;;;;;;4218909;28;20504;-78
2023/12/16 02:27:23;;;;;;;36.50;10.33;;;4.90;99.90;;;;;;4213882;28;20430;-78
2023/12/16 02:29:25;;;;;;;33.20;10.43;;;4.80;99.90;;;;;;4213017;28;20933;-78
2023/12/16 02:31:26;;;;;;;35.90;10.37;;;4.80;99.90;;;;;;4215174;28;20481;-78
2023/12/16 02:33:28;;;;;;;31.03;10.53;;;4.90;99.90;;;;;;4211728;28;20541;-78
2023/12/16 02:35:30;;;;;;;25.57;9.97;;;4.90;99.90;;;;;;4214293;28;20459;-78
2023/12/16 02:37:32;;;;;;;31.20;10.80;;;4.80;99.90;;;;;;4212425;28;20545;-78
2023/12/16 02:39:35;;;;;;;32.57;11.17;;;4.80;99.90;;;;;;4210683;28;20850;-78
2023/12/16 02:41:37;;;;;;;33.37;10.03;;;4.90;99.90;;;;;;4213934;28;20527;-78
2023/12/16 02:43:39;;;;;;;36.47;11.70;;;4.90;99.90;;;;;;4219899;28;21004;-78
2023/12/16 02:45:41;;;;;;;33.67;10.93;;;4.80;99.90;;;;;;4199632;28;20974;-78
2023/12/16 02:47:43;;;;;;;25.73;10.67;;;4.90;99.90;;;;;;4213681;28;20942;-78
2023/12/16 02:49:44;;;;;;;34.83;11.23;;;4.90;99.90;;;;;;4219339;28;20467;-78
2023/12/16 02:51:46;;;;;;;36.20;12.53;;;4.90;99.90;;;;;;4214120;28;20470;-78
2023/12/16 02:53:48;;;;;;;30.10;11.10;;;4.90;99.90;;;;;;4214341;28;20458;-77
2023/12/16 02:55:51;;;;;;;34.53;10.97;;;4.90;99.90;;;;;;4218747;28;20920;-78
2023/12/16 02:57:53;;;;;;;30.23;11.10;;;4.90;99.90;;;;;;4217550;28;20444;-78
2023/12/16 02:59:55;;;;;;;32.47;10.77;;;4.90;99.90;;;;;;4212617;28;20510;-78
2023/12/16 03:01:56;;;;;;;32.80;10.87;;;4.90;99.90;;;;;;4211174;28;20469;-78
2023/12/16 03:03:58;;;;;;;30.40;10.43;;;4.90;99.90;;;;;;4216928;28;20509;-78
2023/12/16 03:06:05;;;;;;;31.70;10.83;;;4.90;99.90;;;;;;4203385;28;20687;-78
2023/12/16 03:08:08;;;;;;;33.60;10.33;;;4.90;99.90;;;;;;4218910;28;20532;-77
2023/12/16 03:10:10;;;;;;;28.00;10.97;;;4.90;99.90;;;;;;4218620;28;20473;-77
2023/12/16 03:12:15;;;;;;;28.07;9.50;;;4.90;99.90;;;;;;4214030;28;20924;-77
2023/12/16 03:14:17;;;;;;;31.40;10.30;;;4.90;99.90;;;;;;4211513;28;20473;-78
2023/12/16 03:16:19;;;;;;;26.13;9.50;;;4.90;99.90;;;;;;4211948;28;20438;-78
2023/12/16 03:18:21;;;;;;;27.60;10.10;;;4.90;99.90;;;;;;4212987;28;20446;-78
2023/12/16 03:20:23;;;;;;;27.33;11.00;;;4.90;99.90;;;;;;4215758;28;20453;-77
2023/12/16 03:22:25;;;;;;;28.67;10.33;;;4.90;99.90;;;;;;4218237;28;20454;-77
2023/12/16 03:24:26;;;;;;;32.60;11.50;;;5.00;99.90;;;;;;4209270;28;20491;-77
2023/12/16 03:26:28;;;;;;;30.37;10.63;;;4.90;99.90;;;;;;4216571;28;20443;-77
2023/12/16 03:28:31;;;;;;;30.80;10.57;;;4.90;99.90;;;;;;4213476;28;20682;-77
2023/12/16 03:30:33;;;;;;;30.50;9.97;;;5.10;99.90;;;;;;4206864;28;20486;-77
2023/12/16 03:32:35;;;;;;;27.23;9.27;;;4.90;99.90;;;;;;4216694;28;20451;-77
2023/12/16 03:34:37;;;;;;;30.83;9.70;;;4.90;99.90;;;;;;4217822;28;20458;-77
2023/12/16 03:36:39;;;;;;;26.47;10.23;;;5.20;99.90;;;;;;4216420;28;20451;-77
2023/12/16 03:38:43;;;;;;;27.97;9.90;;;4.90;99.90;;;;;;4214953;28;20439;-77
2023/12/16 03:40:44;;;;;;;37.73;10.87;;;4.90;99.90;;;;;;4221285;28;20475;-77
2023/12/16 03:42:46;;;;;;;31.90;9.90;;;4.90;99.90;;;;;;4221018;28;20442;-77
2023/12/16 03:44:49;;;;;;;31.73;10.97;;;5.00;99.90;;;;;;4224074;28;20480;-78
2023/12/16 03:46:50;;;;;;;28.20;10.07;;;4.90;99.90;;;;;;4218305;28;20450;-78
2023/12/16 03:48:52;;;;;;;38.83;10.93;;;5.00;99.90;;;;;;4218470;28;20525;-78
2023/12/16 03:50:54;;;;;;;24.03;10.33;;;5.00;99.90;;;;;;4221710;28;20337;-77
2023/12/16 03:52:56;;;;;;;35.43;10.80;;;5.00;99.90;;;;;;4215325;28;20441;-78
2023/12/16 03:54:58;;;;;;;22.47;10.03;;;4.90;99.90;;;;;;4219426;28;21028;-77
2023/12/16 03:57:00;;;;;;;31.50;10.93;;;5.00;99.90;;;;;;4224863;28;20515;-77
2023/12/16 03:59:02;;;;;;;23.93;9.43;;;4.90;99.90;;;;;;4214590;28;20966;-77
2023/12/16 04:01:05;;;;;;;24.10;9.43;;;4.90;99.90;;;;;;4216833;28;20481;-78
2023/12/16 04:03:07;;;;;;;28.30;10.53;;;4.90;99.90;;;;;;4218679;28;20463;-77
2023/12/16 04:05:09;;;;;;;31.17;10.37;;;4.90;99.90;;;;;;4224360;28;20455;-77
2023/12/16 04:07:11;;;;;;;26.37;9.50;;;5.00;99.90;;;;;;4217239;28;20457;-77
2023/12/16 04:09:13;;;;;;;32.03;10.03;;;4.90;99.90;;;;;;4197510;28;20489;-77
2023/12/16 04:11:15;;;;;;;29.67;9.97;;;5.00;99.90;;;;;;4221776;28;20487;-78
2023/12/16 04:13:17;;;;;;;32.40;8.77;;;5.00;99.90;;;;;;4217887;28;20505;-77
2023/12/16 04:15:19;;;;;;;26.90;9.37;;;5.00;99.90;;;;;;4215078;28;20451;-77
2023/12/16 04:17:22;;;;;;;30.03;9.87;;;5.00;99.90;;;;;;4215051;28;20450;-78
2023/12/16 04:19:24;;;;;;;22.90;9.00;;;5.00;99.90;;;;;;4212852;28;20450;-77
2023/12/16 04:21:25;;;;;;;29.37;9.63;;;5.00;99.90;;;;;;4218374;28;20466;-77
2023/12/16 04:23:27;;;;;;;21.90;8.53;;;5.00;99.90;;;;;;4209464;28;20930;-77
2023/12/16 04:25:28;;;;;;;30.73;9.87;;;5.00;99.90;;;;;;4201175;28;20213;-77
2023/12/16 04:27:30;;;;;;;23.87;9.00;;;5.00;99.90;;;;;;4216052;28;20458;-77
2023/12/16 04:29:33;;;;;;;24.70;8.47;;;5.00;99.90;;;;;;4213659;28;20224;-77
2023/12/16 04:31:35;;;;;;;25.10;9.10;;;5.00;99.90;;;;;;4214873;28;20504;-78
2023/12/16 04:33:38;;;;;;;21.80;8.30;;;5.00;99.90;;;;;;4215328;28;20852;-77
2023/12/16 04:35:40;;;;;;;24.37;8.70;;;5.00;99.90;;;;;;4216516;28;20450;-78
2023/12/16 04:37:42;;;;;;;25.53;8.83;;;5.10;99.90;;;;;;4194981;28;20533;-78
2023/12/16 04:39:44;;;;;;;26.07;9.67;;;5.10;99.90;;;;;;4194418;28;20463;-78
2023/12/16 04:41:46;;;;;;;24.80;8.90;;;5.10;99.90;;;;;;4212445;28;20470;-78
2023/12/16 04:43:53;;;;;;;27.97;9.27;;;5.10;99.90;;;;;;4213161;28;20506;-78
2023/12/16 04:45:55;;;;;;;28.27;8.93;;;5.10;99.90;;;;;;4210725;28;20964;-77
2023/12/16 04:47:56;;;;;;;21.07;8.43;;;5.10;99.90;;;;;;4213803;28;21189;-77
2023/12/16 04:50:00;;;;;;;25.73;9.07;;;5.30;99.90;;;;;;4218806;28;20453;-77
2023/12/16 04:52:01;;;;;;;21.40;8.30;;;5.10;99.90;;;;;;4213124;28;20976;-78
2023/12/16 04:54:03;;;;;;;24.83;8.53;;;5.20;99.90;;;;;;4216465;28;20490;-78
2023/12/16 04:56:06;;;;;;;23.17;8.67;;;5.10;99.90;;;;;;4199568;28;20263;-77
2023/12/16 04:58:08;;;;;;;20.80;8.33;;;5.10;99.90;;;;;;4222693;28;20462;-77
2023/12/16 05:00:10;;;;;;;19.97;8.27;;;5.20;99.90;;;;;;4221260;28;20844;-77
2023/12/16 05:02:12;;;;;;;27.17;8.60;;;5.20;99.90;;;;;;4222079;28;20530;-77
2023/12/16 05:04:14;;;;;;;22.47;9.07;;;5.10;99.90;;;;;;4212818;28;20515;-77
2023/12/16 05:06:17;;;;;;;22.90;8.60;;;5.20;99.90;;;;;;4213549;28;20488;-78
2023/12/16 05:08:20;;;;;;;21.40;8.73;;;5.20;99.90;;;;;;4221318;28;20446;-77
2023/12/16 05:10:22;;;;;;;26.07;8.93;;;5.20;99.90;;;;;;4220767;28;20446;-77
2023/12/16 05:12:24;;;;;;;28.50;8.53;;;5.20;99.90;;;;;;4216743;28;20474;-77
2023/12/16 05:14:26;;;;;;;27.20;9.10;;;5.20;99.90;;;;;;4213705;28;21003;-78
2023/12/16 05:16:28;;;;;;;20.87;8.30;;;5.20;99.90;;;;;;4213984;28;20492;-77
2023/12/16 05:18:30;;;;;;;28.87;9.30;;;5.20;99.90;;;;;;4211778;28;20494;-77
2023/12/16 05:20:32;;;;;;;23.70;9.53;;;5.20;99.90;;;;;;4213427;28;20832;-77
2023/12/16 05:22:35;;;;;;;25.23;10.37;;;5.20;99.90;;;;;;4212917;28;20443;-78
2023/12/16 05:24:37;;;;;;;25.90;10.50;;;5.20;99.90;;;;;;4219158;28;20496;-78
2023/12/16 05:26:38;;;;;;;28.47;10.43;;;5.20;99.90;;;;;;4211918;28;20455;-77
2023/12/16 05:28:40;;;;;;;29.10;11.37;;;5.20;99.90;;;;;;4193914;28;20460;-78
2023/12/16 05:30:42;;;;;;;34.10;12.80;;;5.20;99.90;;;;;;4214495;28;20470;-77
2023/12/16 05:32:44;;;;;;;52.30;17.93;;;5.20;99.90;;;;;;4211437;28;20512;-77
2023/12/16 05:34:46;;;;;;;35.67;12.17;;;5.20;99.90;;;;;;4215378;28;20503;-77
2023/12/16 05:36:50;;;;;;;24.03;10.47;;;5.20;99.90;;;;;;4218034;28;20438;-78
2023/12/16 05:38:53;;;;;;;26.93;9.80;;;5.20;99.90;;;;;;4215820;28;20434;-77
2023/12/16 05:40:54;;;;;;;22.50;8.87;;;5.20;99.90;;;;;;4217849;28;20473;-77
2023/12/16 05:42:56;;;;;;;22.17;8.97;;;5.20;99.90;;;;;;4216829;28;20507;-77
2023/12/16 05:44:58;;;;;;;22.57;8.73;;;5.20;99.90;;;;;;4215615;28;20499;-78
2023/12/16 05:47:00;;;;;;;23.40;8.13;;;5.20;99.90;;;;;;4214303;28;21011;-77
2023/12/16 05:49:03;;;;;;;22.03;9.47;;;5.40;99.90;;;;;;4216980;28;20900;-78
2023/12/16 05:51:05;;;;;;;28.60;10.93;;;5.20;99.90;;;;;;4216124;28;21111;-77
2023/12/16 05:53:08;;;;;;;27.53;10.27;;;5.20;99.90;;;;;;4213173;28;20542;-77
2023/12/16 05:55:11;;;;;;;25.77;10.97;;;5.20;99.90;;;;;;4219186;28;20453;-77
2023/12/16 05:57:13;;;;;;;28.93;9.67;;;5.30;99.90;;;;;;4217860;28;20457;-77
2023/12/16 05:59:15;;;;;;;32.23;8.53;;;5.20;99.90;;;;;;4213771;28;20454;-77
2023/12/16 06:01:19;;;;;;;22.30;8.47;;;5.20;99.90;;;;;;4216955;28;20973;-77
2023/12/16 06:03:20;;;;;;;29.83;8.17;;;5.30;99.90;;;;;;4218223;28;20523;-77
2023/12/16 06:05:23;;;;;;;28.63;9.20;;;5.30;99.90;;;;;;4217097;28;20534;-77
2023/12/16 06:07:25;;;;;;;26.17;9.10;;;5.20;99.90;;;;;;4213845;28;20624;-77
2023/12/16 06:09:27;;;;;;;25.77;11.27;;;5.20;99.90;;;;;;4203364;28;20446;-77
2023/12/16 06:11:31;;;;;;;22.33;9.83;;;5.20;99.90;;;;;;4209132;28;20480;-77
2023/12/16 06:13:33;;;;;;;25.57;9.20;;;5.30;99.90;;;;;;4206677;28;20439;-77
2023/12/16 06:15:34;;;;;;;19.27;7.70;;;5.30;99.90;;;;;;4211100;28;20509;-77
2023/12/16 06:17:36;;;;;;;21.73;8.00;;;5.30;99.90;;;;;;4212715;28;20508;-77
2023/12/16 06:19:37;;;;;;;21.77;7.80;;;5.30;99.90;;;;;;4215614;28;21205;-77
2023/12/16 06:21:38;;;;;;;19.00;8.13;;;5.30;99.90;;;;;;4217364;28;20519;-77
2023/12/16 06:23:40;;;;;;;18.93;8.47;;;5.30;99.90;;;;;;4215157;28;20439;-77
2023/12/16 06:25:43;;;;;;;21.93;7.73;;;5.30;99.90;;;;;;4195912;28;20546;-77
2023/12/16 06:27:46;;;;;;;17.37;8.30;;;5.40;99.90;;;;;;4218694;28;20966;-78
2023/12/16 06:29:48;;;;;;;25.30;8.40;;;5.30;99.90;;;;;;4214724;28;20470;-77
2023/12/16 06:31:51;;;;;;;26.70;8.27;;;5.30;99.90;;;;;;4202807;28;20486;-77
2023/12/16 06:33:53;;;;;;;24.53;8.50;;;5.00;99.90;;;;;;4215079;28;20462;-78
2023/12/16 06:35:55;;;;;;;23.93;8.20;;;5.30;99.90;;;;;;4212214;28;20962;-77
2023/12/16 06:37:56;;;;;;;20.60;8.37;;;5.30;99.90;;;;;;4218281;28;20514;-78
2023/12/16 06:40:01;;;;;;;19.50;7.77;;;5.30;99.90;;;;;;4217206;28;20442;-78
2023/12/16 06:42:03;;;;;;;24.00;8.30;;;5.30;99.90;;;;;;4217169;28;20235;-77
2023/12/16 06:44:06;;;;;;;21.07;8.63;;;5.30;99.90;;;;;;4214701;28;20522;-77
2023/12/16 06:46:08;;;;;;;21.53;8.70;;;5.30;99.90;;;;;;4215647;28;20537;-77
2023/12/16 06:48:09;;;;;;;22.70;8.83;;;5.30;99.90;;;;;;4215874;28;20458;-77
2023/12/16 06:50:11;;;;;;;19.17;7.93;;;5.40;99.90;;;;;;4215207;28;20447;-77
2023/12/16 06:52:13;;;;;;;24.30;8.83;;;5.60;99.90;;;;;;4218773;28;20229;-77
2023/12/16 06:54:15;;;;;;;28.30;9.93;;;5.30;99.90;;;;;;4220662;28;20452;-77
2023/12/16 06:56:16;;;;;;;25.70;10.60;;;5.30;99.90;;;;;;4220153;28;20492;-78
2023/12/16 06:58:18;;;;;;;24.53;10.40;;;5.30;99.90;;;;;;4224534;28;20466;-78
2023/12/16 07:00:22;;;;;;;27.90;11.07;;;5.30;99.90;;;;;;4213143;28;20462;-78
2023/12/16 07:02:25;;;;;;;27.47;9.93;;;5.40;99.90;;;;;;4215508;28;20481;-79
2023/12/16 07:04:27;;;;;;;29.77;10.67;;;5.30;99.90;;;;;;4215449;28;20814;-79
2023/12/16 07:06:29;;;;;;;32.20;11.50;;;5.30;99.90;;;;;;4215018;28;20447;-78
2023/12/16 07:08:34;;;;;;;26.10;10.53;;;5.30;99.90;;;;;;4218624;28;20205;-78
2023/12/16 07:10:36;;;;;;;26.00;10.73;;;5.40;99.90;;;;;;4224524;28;20553;-79
2023/12/16 07:12:38;;;;;;;35.43;11.23;;;5.80;99.90;;;;;;4227052;28;20486;-79
2023/12/16 07:14:41;;;;;;;32.63;11.57;;;5.30;99.90;;;;;;4227741;28;20493;-79
2023/12/16 07:16:44;;;;;;;25.20;11.10;;;5.30;99.90;;;;;;4229510;28;21089;-79
2023/12/16 07:18:46;;;;;;;21.10;10.63;;;5.40;99.90;;;;;;4229643;28;20496;-79
2023/12/16 07:20:48;;;;;;;26.93;10.47;;;5.30;99.90;;;;;;4221061;28;20470;-78
2023/12/16 07:22:50;;;;;;;36.13;11.27;;;5.30;99.90;;;;;;4224213;28;20442;-78
2023/12/16 07:24:52;;;;;;;28.13;10.40;;;5.30;99.90;;;;;;4218020;28;20451;-78
2023/12/16 07:26:54;;;;;;;24.20;10.97;;;5.30;99.90;;;;;;4221434;28;20956;-78
2023/12/16 07:28:55;;;;;;;29.70;9.90;;;5.30;99.90;;;;;;4218820;28;20449;-79
2023/12/16 07:30:59;;;;;;;24.53;9.60;;;5.40;99.90;;;;;;4215570;28;20454;-79
2023/12/16 07:33:02;;;;;;;25.47;10.13;;;5.40;99.90;;;;;;4217877;28;20486;-78
2023/12/16 07:35:06;;;;;;;25.13;10.60;;;5.30;99.90;;;;;;4220236;28;20450;-78
2023/12/16 07:37:08;;;;;;;28.60;10.57;;;5.40;99.90;;;;;;4217006;28;20434;-78
2023/12/16 07:39:10;;;;;;;29.80;10.57;;;5.40;99.90;;;;;;4217483;28;20447;-78
2023/12/16 07:41:12;;;;;;;28.60;11.50;;;5.40;99.90;;;;;;4219469;28;20474;-79
2023/12/16 07:43:14;;;;;;;29.53;11.10;;;5.40;99.90;;;;;;4221561;28;20439;-78
2023/12/16 07:45:16;;;;;;;26.30;10.67;;;5.30;99.90;;;;;;4215385;28;20913;-78
2023/12/16 07:47:17;;;;;;;24.80;10.17;;;5.40;99.90;;;;;;4215647;28;20966;-79
2023/12/16 07:49:25;;;;;;;27.17;11.03;;;5.40;99.90;;;;;;4224016;28;20506;-79
2023/12/16 07:51:27;;;;;;;27.80;11.33;;;5.40;99.90;;;;;;4214251;28;20509;-79
2023/12/16 07:53:29;;;;;;;30.80;12.27;;;5.40;99.90;;;;;;4204006;28;20542;-78
2023/12/16 07:55:31;;;;;;;29.30;11.87;;;5.40;99.90;;;;;;4218759;28;20492;-79
2023/12/16 07:57:33;;;;;;;27.57;12.07;;;5.40;99.90;;;;;;4219947;28;20485;-79
2023/12/16 07:59:34;;;;;;;28.27;11.57;;;5.40;99.90;;;;;;4214246;28;20439;-79
2023/12/16 08:01:36;;;;;;;29.33;11.60;;;5.40;99.90;;;;;;4214641;28;21002;-79
2023/12/16 08:03:37;;;;;;;25.40;11.07;;;5.70;99.90;;;;;;4215571;28;20205;-78
2023/12/16 08:05:41;;;;;;;26.77;11.27;;;5.40;99.90;;;;;;4217199;28;20442;-78
2023/12/16 08:07:45;;;;;;;31.57;12.00;;;5.50;99.90;;;;;;4214944;28;20506;-79
2023/12/16 08:09:47;;;;;;;26.17;11.07;;;5.50;99.90;;;;;;4216091;28;20467;-78
2023/12/16 08:11:50;;;;;;;24.10;11.30;;;5.40;99.90;;;;;;4207353;28;20497;-79
2023/12/16 08:13:52;;;;;;;31.83;10.77;;;5.50;99.90;;;;;;4191851;28;20470;-79
2023/12/16 08:15:54;;;;;;;25.70;11.07;;;5.50;99.90;;;;;;4211676;28;20443;-79
2023/12/16 08:17:56;;;;;;;29.70;10.70;;;5.50;99.90;;;;;;4223996;28;20969;-79
2023/12/16 08:19:58;;;;;;;22.40;10.43;;;5.50;99.90;;;;;;4224817;28;20454;-79
2023/12/16 08:22:02;;;;;;;26.80;10.10;;;5.50;99.90;;;;;;4215418;28;21027;-78
2023/12/16 08:24:04;;;;;;;25.03;10.30;;;5.50;99.90;;;;;;4210729;28;20446;-79
2023/12/16 08:26:10;;;;;;;28.93;10.40;;;5.50;99.90;;;;;;4214131;28;20538;-79
2023/12/16 08:28:12;;;;;;;31.20;9.17;;;5.60;99.90;;;;;;4213395;28;20954;-79
2023/12/16 08:30:14;;;;;;;23.13;9.47;;;5.60;99.90;;;;;;4210402;28;20466;-78
2023/12/16 08:32:15;;;;;;;29.53;9.93;;;5.60;99.90;;;;;;4215155;28;20485;-79
2023/12/16 08:34:17;;;;;;;22.00;9.20;;;5.60;99.90;;;;;;4212837;28;20442;-78
2023/12/16 08:36:19;;;;;;;25.93;9.77;;;5.70;99.90;;;;;;4210247;28;20459;-78
2023/12/16 08:38:24;;;;;;;25.73;10.20;;;5.60;99.90;;;;;;4215929;28;21002;-78
2023/12/16 08:40:26;;;;;;;23.80;9.33;;;5.60;99.90;;;;;;4213303;28;20513;-78
2023/12/16 08:42:28;;;;;;;20.10;8.80;;;5.60;99.90;;;;;;4216716;28;20439;-78
2023/12/16 08:44:30;;;;;;;22.53;9.53;;;5.60;99.90;;;;;;4217886;28;20529;-77
2023/12/16 08:46:32;;;;;;;24.60;9.57;;;5.70;99.90;;;;;;4214599;28;20453;-77
2023/12/16 08:48:35;;;;;;;19.70;9.00;;;5.70;99.90;;;;;;4215777;28;20449;-77
2023/12/16 08:50:37;;;;;;;22.50;8.67;;;5.70;99.90;;;;;;4218155;28;20458;-78
2023/12/16 08:52:38;;;;;;;26.93;9.40;;;5.70;99.90;;;;;;4213398;28;20487;-78
2023/12/16 08:54:42;;;;;;;19.03;8.33;;;5.70;99.90;;;;;;4216013;28;20443;-79
2023/12/16 08:56:44;;;;;;;21.77;8.80;;;5.40;99.90;;;;;;4215582;28;20197;-79
2023/12/16 08:58:46;;;;;;;23.37;9.67;;;5.70;99.90;;;;;;4214690;28;20450;-79
2023/12/16 09:00:49;;;;;;;25.73;9.23;;;5.70;99.90;;;;;;4211940;28;20489;-77
2023/12/16 09:02:51;;;;;;;23.03;8.87;;;5.70;99.90;;;;;;4211436;28;20501;-77
2023/12/16 09:04:51;;;;;;;17.13;8.83;;;5.80;99.90;;;;;;4214283;28;20450;-79
2023/12/16 09:06:54;;;;;;;24.40;9.27;;;5.70;99.90;;;;;;4215606;28;20446;-79
2023/12/16 09:09:00;;;;;;;18.37;9.20;;;5.80;99.90;;;;;;4211574;28;20205;-79
2023/12/16 09:11:04;;;;;;;23.60;8.07;;;5.80;99.90;;;;;;4212740;28;20528;-79
2023/12/16 09:13:06;;;;;;;22.37;9.23;;;5.80;99.90;;;;;;4211956;28;20543;-79
2023/12/16 09:15:08;;;;;;;18.27;8.33;;;5.80;99.90;;;;;;4210962;28;20451;-80
2023/12/16 09:17:10;;;;;;;18.47;8.40;;;5.90;99.90;;;;;;4216372;28;20446;-80
2023/12/16 09:19:12;;;;;;;24.10;9.43;;;5.90;99.90;;;;;;4215399;28;20443;-79
2023/12/16 09:21:16;;;;;;;24.10;8.37;;;5.90;99.90;;;;;;4213057;28;20487;-78
2023/12/16 09:23:17;;;;;;;21.90;8.20;;;5.90;99.90;;;;;;4210518;28;20443;-80
2023/12/16 09:25:19;;;;;;;18.87;7.97;;;6.00;99.90;;;;;;4211031;28;20448;-79
2023/12/16 09:27:22;;;;;;;18.40;8.00;;;6.00;99.90;;;;;;4208693;28;20205;-80
2023/12/16 09:29:25;;;;;;;22.27;8.30;;;6.00;99.90;;;;;;4213531;28;20216;-80
2023/12/16 09:31:26;;;;;;;19.23;8.03;;;6.00;99.90;;;;;;4209175;28;20494;-77
2023/12/16 09:33:28;;;;;;;29.33;8.00;;;6.00;99.90;;;;;;4212757;28;20581;-82
2023/12/16 09:35:32;;;;;;;13.47;7.17;;;6.00;99.90;;;;;;4215126;28;20209;-80
2023/12/16 09:37:34;;;;;;;14.60;7.30;;;6.00;99.90;;;;;;4211045;28;20216;-80
2023/12/16 09:39:36;;;;;;;19.67;7.03;;;6.00;99.90;;;;;;4215189;28;20276;-74
2023/12/16 09:41:44;;;;;;;19.10;6.90;;;6.00;99.90;;;;;;4216757;28;20470;-73
2023/12/16 09:43:52;;;;;;;17.67;6.83;;;6.00;99.90;;;;;;4214422;28;20445;-75
2023/12/16 09:45:54;;;;;;;17.57;6.60;;;6.00;99.90;;;;;;4211146;28;20208;-76
2023/12/16 09:47:55;;;;;;;22.40;7.60;;;6.50;99.90;;;;;;4214126;28;20444;-74
2023/12/16 09:49:59;;;;;;;17.57;7.60;;;6.00;99.90;;;;;;4212942;28;20205;-81
2023/12/16 09:52:01;;;;;;;17.23;6.53;;;6.00;99.90;;;;;;4210299;28;21251;-81
2023/12/16 09:54:15;;;;;;;18.27;7.33;;;6.10;99.90;;;;;;4213643;28;20291;-84
2023/12/16 09:56:18;;;;;;;22.43;6.03;;;6.10;99.90;;;;;;4215304;28;20454;-81
2023/12/16 09:58:21;;;;;;;18.33;6.80;;;6.10;99.90;;;;;;4215472;28;20534;-77
2023/12/16 10:00:37;;;;;;;17.77;7.07;;;6.10;99.90;;;;;;4215480;28;20930;-78
2023/12/16 10:02:45;;;;;;;14.37;6.53;;;6.20;99.90;;;;;;4208671;28;20447;-75
2023/12/16 10:07:33;;;;;;;12.47;6.13;;;6.20;99.90;;;;;;4216631;28;20478;-81
2023/12/16 10:09:36;;;;;;;13.77;5.67;;;6.20;99.90;;;;;;4196713;28;20237;-81
2023/12/16 10:12:08;;;;;;;16.30;5.70;;;6.60;99.90;;;;;;4222069;28;20684;-76
2023/12/16 10:14:11;;;;;;;18.53;5.60;;;6.20;99.90;;;;;;4206324;28;20439;-76
2023/12/16 10:16:21;;;;;;;15.37;5.87;;;6.30;99.90;;;;;;4214545;28;20934;-80
2023/12/16 10:18:23;;;;;;;13.70;5.40;;;6.40;99.90;;;;;;4209944;28;20197;-80
2023/12/16 10:20:26;;;;;;;13.40;5.60;;;6.30;99.90;;;;;;4218784;28;20459;-80
2023/12/16 10:22:28;;;;;;;12.27;5.50;;;6.30;99.90;;;;;;4219308;28;20237;-78
2023/12/16 10:24:30;;;;;;;19.73;5.73;;;6.40;99.90;;;;;;4218847;28;20201;-79
2023/12/16 10:26:34;;;;;;;14.83;5.80;;;6.30;99.90;;;;;;4207443;28;20455;-76
2023/12/16 10:28:39;;;;;;;16.03;4.90;;;6.30;99.90;;;;;;4209077;28;20439;-79
2023/12/16 10:30:43;;;;;;;17.30;5.83;;;6.30;99.90;;;;;;4219823;28;20251;-78
2023/12/16 10:32:48;;;;;;;13.10;4.90;;;6.20;99.90;;;;;;4219395;28;20231;-78
2023/12/16 10:34:52;;;;;;;16.20;4.90;;;6.30;99.90;;;;;;4218760;28;20207;-79